sensor_id;sensor_type;location;lat;lon;timestamp;pressure;altitude;pressure_sealevel;temperature;humidity
47983;BME280;33751;50.816;-1.214;2023-11-19T00:00:01;100935.35;;;28.33;100.00
47983;BME280;33751;50.816;-1.214;2023-11-19T00:02:28;100933.67;;;28.58;100.00
47983;BME280;33751;50.816;-1.214;2023-11-19T00:04:55;100933.16;;;28.33;100.00
47983;BME280;33751;50.816;-1.214;2023-11-19T00:07:22;100932.52;;;28.24;100.00
47983;BME280;33751;50.816;-1.214;2023-11-19T00:09:49;100929.10;;;28.21;100.00
47983;BME280;33751;50.816;-1.214;2023-11-19T00:12:16;100922.25;;;28.46;100.00
47983;BME280;33751;50.816;-1.214;2023-11-19T00:14:42;100922.20;;;28.47;100.00
47983;BME280;33751;50.816;-1.214;2023-11-19T00:17:08;100927.89;;;28.59;100.00
47983;BME280;33751;50.816;-1.214;2023-11-19T00:19:36;100936.45;;;28.65;100.00
47983;BME280;33751;50.816;-1.214;2023-11-19T00:22:03;100935.87;;;28.36;100.00
47983;BME280;33751;50.816;-1.214;2023-11-19T00:24:30;100933.97;;;28.35;100.00
47983;BME280;33751;50.816;-1.214;2023-11-19T00:26:57;100931.44;;;28.36;100.00
47983;BME280;33751;50.816;-1.214;2023-11-19T00:29:24;100936.15;;;28.76;100.00
47983;BME280;33751;50.816;-1.214;2023-11-19T00:31:51;100936.67;;;28.35;100.00
47983;BME280;33751;50.816;-1.214;2023-11-19T00:34:17;100933.48;;;28.51;100.00
47983;BME280;33751;50.816;-1.214;2023-11-19T00:36:45;100940.63;;;28.30;100.00
47983;BME280;33751;50.816;-1.214;2023-11-19T00:39:11;100946.80;;;28.44;100.00
47983;BME280;33751;50.816;-1.214;2023-11-19T00:41:38;100943.24;;;28.30;100.00
47983;BME280;33751;50.816;-1.214;2023-11-19T00:44:05;100941.83;;;28.30;100.00
47983;BME280;33751;50.816;-1.214;2023-11-19T00:46:31;100944.83;;;28.57;100.00
47983;BME280;33751;50.816;-1.214;2023-11-19T00:48:58;100946.05;;;28.50;100.00
47983;BME280;33751;50.816;-1.214;2023-11-19T00:51:25;100949.98;;;28.60;100.00
47983;BME280;33751;50.816;-1.214;2023-11-19T00:53:51;100946.60;;;28.25;100.00
47983;BME280;33751;50.816;-1.214;2023-11-19T00:56:17;100943.95;;;27.95;100.00
47983;BME280;33751;50.816;-1.214;2023-11-19T00:58:44;100947.50;;;27.93;100.00
47983;BME280;33751;50.816;-1.214;2023-11-19T01:01:11;100953.96;;;28.04;100.00
47983;BME280;33751;50.816;-1.214;2023-11-19T01:03:38;100948.07;;;28.07;100.00
47983;BME280;33751;50.816;-1.214;2023-11-19T01:06:06;100949.69;;;28.28;100.00
47983;BME280;33751;50.816;-1.214;2023-11-19T01:08:33;100945.88;;;28.03;100.00
47983;BME280;33751;50.816;-1.214;2023-11-19T01:10:59;100955.77;;;27.73;100.00
47983;BME280;33751;50.816;-1.214;2023-11-19T01:13:26;100956.13;;;27.96;100.00
47983;BME280;33751;50.816;-1.214;2023-11-19T01:15:53;100959.71;;;28.06;100.00
47983;BME280;33751;50.816;-1.214;2023-11-19T01:18:19;100956.81;;;27.80;100.00
47983;BME280;33751;50.816;-1.214;2023-11-19T01:20:46;100952.16;;;28.13;100.00
47983;BME280;33751;50.816;-1.214;2023-11-19T01:23:12;100946.83;;;28.31;100.00
47983;BME280;33751;50.816;-1.214;2023-11-19T01:25:39;100940.00;;;27.85;100.00
47983;BME280;33751;50.816;-1.214;2023-11-19T01:28:05;100940.02;;;27.92;100.00
47983;BME280;33751;50.816;-1.214;2023-11-19T01:30:32;100936.32;;;28.08;100.00
47983;BME280;33751;50.816;-1.214;2023-11-19T01:32:59;100939.06;;;27.85;100.00
47983;BME280;33751;50.816;-1.214;2023-11-19T01:35:25;100944.19;;;28.03;100.00
47983;BME280;33751;50.816;-1.214;2023-11-19T01:37:51;100940.05;;;27.90;100.00
47983;BME280;33751;50.816;-1.214;2023-11-19T01:40:20;100931.02;;;27.68;100.00
47983;BME280;33751;50.816;-1.214;2023-11-19T01:42:47;100933.30;;;27.78;100.00
47983;BME280;33751;50.816;-1.214;2023-11-19T01:45:22;100936.69;;;27.87;100.00
47983;BME280;33751;50.816;-1.214;2023-11-19T01:47:53;100923.97;;;27.86;100.00
47983;BME280;33751;50.816;-1.214;2023-11-19T01:50:21;100922.91;;;27.09;100.00
47983;BME280;33751;50.816;-1.214;2023-11-19T01:52:48;100921.12;;;27.64;100.00
47983;BME280;33751;50.816;-1.214;2023-11-19T01:55:15;100925.30;;;28.11;100.00
47983;BME280;33751;50.816;-1.214;2023-11-19T01:57:42;100925.74;;;27.70;100.00
47983;BME280;33751;50.816;-1.214;2023-11-19T02:00:10;100928.87;;;27.54;100.00
47983;BME280;33751;50.816;-1.214;2023-11-19T02:02:38;100935.85;;;27.79;100.00
47983;BME280;33751;50.816;-1.214;2023-11-19T02:05:04;100922.53;;;27.94;100.00
47983;BME280;33751;50.816;-1.214;2023-11-19T02:07:31;100922.16;;;27.90;100.00
47983;BME280;33751;50.816;-1.214;2023-11-19T02:09:58;100915.09;;;27.99;100.00
47983;BME280;33751;50.816;-1.214;2023-11-19T02:12:25;100909.75;;;28.28;100.00
47983;BME280;33751;50.816;-1.214;2023-11-19T02:14:51;100907.70;;;27.94;100.00
47983;BME280;33751;50.816;-1.214;2023-11-19T02:17:26;100900.86;;;28.16;100.00
47983;BME280;33751;50.816;-1.214;2023-11-19T02:19:53;100898.02;;;27.97;100.00
47983;BME280;33751;50.816;-1.214;2023-11-19T02:22:19;100894.34;;;28.15;100.00
47983;BME280;33751;50.816;-1.214;2023-11-19T02:24:50;100891.48;;;28.25;100.00
47983;BME280;33751;50.816;-1.214;2023-11-19T02:27:25;100886.39;;;28.12;100.00
47983;BME280;33751;50.816;-1.214;2023-11-19T02:29:55;100879.67;;;28.21;100.00
47983;BME280;33751;50.816;-1.214;2023-11-19T02:32:22;100880.88;;;27.95;100.00
47983;BME280;33751;50.816;-1.214;2023-11-19T02:34:48;100886.71;;;28.17;100.00
47983;BME280;33751;50.816;-1.214;2023-11-19T02:37:15;100890.76;;;28.13;100.00
47983;BME280;33751;50.816;-1.214;2023-11-19T02:39:41;100881.02;;;28.38;100.00
47983;BME280;33751;50.816;-1.214;2023-11-19T02:42:08;100884.25;;;27.90;100.00
47983;BME280;33751;50.816;-1.214;2023-11-19T02:44:35;100883.58;;;28.05;100.00
47983;BME280;33751;50.816;-1.214;2023-11-19T02:47:01;100886.87;;;28.23;100.00
47983;BME280;33751;50.816;-1.214;2023-11-19T02:49:28;100889.63;;;28.23;100.00
47983;BME280;33751;50.816;-1.214;2023-11-19T02:51:55;100873.96;;;28.19;100.00
47983;BME280;33751;50.816;-1.214;2023-11-19T02:54:22;100853.09;;;27.93;100.00
47983;BME280;33751;50.816;-1.214;2023-11-19T02:56:48;100858.42;;;28.22;100.00
47983;BME280;33751;50.816;-1.214;2023-11-19T02:59:15;100851.45;;;28.18;100.00
47983;BME280;33751;50.816;-1.214;2023-11-19T03:01:41;100855.62;;;27.98;100.00
47983;BME280;33751;50.816;-1.214;2023-11-19T03:04:08;100857.55;;;27.89;100.00
47983;BME280;33751;50.816;-1.214;2023-11-19T03:06:35;100855.06;;;28.20;100.00
47983;BME280;33751;50.816;-1.214;2023-11-19T03:09:01;100859.28;;;28.35;100.00
47983;BME280;33751;50.816;-1.214;2023-11-19T03:11:28;100856.95;;;28.16;100.00
47983;BME280;33751;50.816;-1.214;2023-11-19T03:13:55;100860.10;;;27.86;100.00
47983;BME280;33751;50.816;-1.214;2023-11-19T03:16:22;100858.82;;;27.84;100.00
47983;BME280;33751;50.816;-1.214;2023-11-19T03:18:49;100863.59;;;27.86;100.00
47983;BME280;33751;50.816;-1.214;2023-11-19T03:21:16;100865.61;;;28.14;100.00
47983;BME280;33751;50.816;-1.214;2023-11-19T03:23:43;100868.98;;;28.26;100.00
47983;BME280;33751;50.816;-1.214;2023-11-19T03:26:10;100873.88;;;28.27;100.00
47983;BME280;33751;50.816;-1.214;2023-11-19T03:28:37;100868.05;;;28.20;100.00
47983;BME280;33751;50.816;-1.214;2023-11-19T03:31:05;100862.79;;;27.81;100.00
47983;BME280;33751;50.816;-1.214;2023-11-19T03:33:32;100861.62;;;28.04;100.00
47983;BME280;33751;50.816;-1.214;2023-11-19T03:35:58;100858.52;;;28.45;100.00
47983;BME280;33751;50.816;-1.214;2023-11-19T03:38:25;100855.99;;;28.07;100.00
47983;BME280;33751;50.816;-1.214;2023-11-19T03:40:52;100859.81;;;28.25;100.00
47983;BME280;33751;50.816;-1.214;2023-11-19T03:43:19;100850.35;;;27.89;100.00
47983;BME280;33751;50.816;-1.214;2023-11-19T03:45:45;100856.20;;;28.13;100.00
47983;BME280;33751;50.816;-1.214;2023-11-19T03:48:12;100866.63;;;28.34;100.00
47983;BME280;33751;50.816;-1.214;2023-11-19T03:50:38;100872.87;;;27.96;100.00
47983;BME280;33751;50.816;-1.214;2023-11-19T03:53:05;100877.31;;;28.02;100.00
47983;BME280;33751;50.816;-1.214;2023-11-19T03:55:32;100877.86;;;28.18;100.00
47983;BME280;33751;50.816;-1.214;2023-11-19T03:57:59;100868.88;;;28.13;100.00
47983;BME280;33751;50.816;-1.214;2023-11-19T04:00:26;100873.54;;;28.08;100.00
47983;BME280;33751;50.816;-1.214;2023-11-19T04:02:52;100874.97;;;27.86;100.00
47983;BME280;33751;50.816;-1.214;2023-11-19T04:05:19;100865.30;;;28.05;100.00
47983;BME280;33751;50.816;-1.214;2023-11-19T04:07:47;100857.50;;;28.48;100.00
47983;BME280;33751;50.816;-1.214;2023-11-19T04:10:15;100848.75;;;28.45;100.00
47983;BME280;33751;50.816;-1.214;2023-11-19T04:12:42;100849.31;;;28.26;100.00
47983;BME280;33751;50.816;-1.214;2023-11-19T04:15:09;100845.48;;;28.16;100.00
47983;BME280;33751;50.816;-1.214;2023-11-19T04:17:35;100840.64;;;28.01;100.00
47983;BME280;33751;50.816;-1.214;2023-11-19T04:20:02;100834.51;;;28.37;100.00
47983;BME280;33751;50.816;-1.214;2023-11-19T04:22:29;100823.79;;;28.03;100.00
47983;BME280;33751;50.816;-1.214;2023-11-19T04:24:56;100816.64;;;28.43;100.00
47983;BME280;33751;50.816;-1.214;2023-11-19T04:27:22;100819.98;;;27.99;100.00
47983;BME280;33751;50.816;-1.214;2023-11-19T04:29:49;100823.01;;;27.90;100.00
47983;BME280;33751;50.816;-1.214;2023-11-19T04:32:15;100818.31;;;28.16;100.00
47983;BME280;33751;50.816;-1.214;2023-11-19T04:34:41;100818.09;;;28.29;100.00
47983;BME280;33751;50.816;-1.214;2023-11-19T04:37:08;100811.18;;;28.38;100.00
47983;BME280;33751;50.816;-1.214;2023-11-19T04:39:34;100812.74;;;28.07;100.00
47983;BME280;33751;50.816;-1.214;2023-11-19T04:42:01;100811.16;;;28.41;100.00
47983;BME280;33751;50.816;-1.214;2023-11-19T04:44:27;100818.26;;;28.15;100.00
47983;BME280;33751;50.816;-1.214;2023-11-19T04:46:54;100811.61;;;28.28;100.00
47983;BME280;33751;50.816;-1.214;2023-11-19T04:49:21;100806.56;;;28.05;100.00
47983;BME280;33751;50.816;-1.214;2023-11-19T04:51:48;100808.37;;;28.28;100.00
47983;BME280;33751;50.816;-1.214;2023-11-19T04:54:14;100804.35;;;28.06;100.00
47983;BME280;33751;50.816;-1.214;2023-11-19T04:56:45;100804.68;;;27.85;100.00
47983;BME280;33751;50.816;-1.214;2023-11-19T04:59:12;100810.95;;;28.05;100.00
47983;BME280;33751;50.816;-1.214;2023-11-19T05:01:38;100810.02;;;28.46;100.00
47983;BME280;33751;50.816;-1.214;2023-11-19T05:04:05;100808.09;;;28.03;100.00
47983;BME280;33751;50.816;-1.214;2023-11-19T05:06:31;100810.20;;;27.91;100.00
47983;BME280;33751;50.816;-1.214;2023-11-19T05:09:00;100811.58;;;28.44;100.00
47983;BME280;33751;50.816;-1.214;2023-11-19T05:11:27;100819.60;;;28.36;100.00
47983;BME280;33751;50.816;-1.214;2023-11-19T05:13:54;100822.25;;;28.01;100.00
47983;BME280;33751;50.816;-1.214;2023-11-19T05:16:20;100816.73;;;28.01;100.00
47983;BME280;33751;50.816;-1.214;2023-11-19T05:18:48;100815.31;;;28.37;100.00
47983;BME280;33751;50.816;-1.214;2023-11-19T05:21:15;100802.15;;;28.36;100.00
47983;BME280;33751;50.816;-1.214;2023-11-19T05:23:42;100801.96;;;28.06;100.00
47983;BME280;33751;50.816;-1.214;2023-11-19T05:26:08;100802.89;;;28.40;100.00
47983;BME280;33751;50.816;-1.214;2023-11-19T05:28:35;100806.68;;;28.14;100.00
47983;BME280;33751;50.816;-1.214;2023-11-19T05:31:02;100802.90;;;28.28;100.00
47983;BME280;33751;50.816;-1.214;2023-11-19T05:33:29;100803.88;;;28.13;100.00
47983;BME280;33751;50.816;-1.214;2023-11-19T05:35:55;100798.69;;;28.34;100.00
47983;BME280;33751;50.816;-1.214;2023-11-19T05:38:22;100802.09;;;28.31;100.00
47983;BME280;33751;50.816;-1.214;2023-11-19T05:40:48;100815.28;;;27.81;100.00
47983;BME280;33751;50.816;-1.214;2023-11-19T05:43:15;100804.24;;;28.29;100.00
47983;BME280;33751;50.816;-1.214;2023-11-19T05:45:42;100803.00;;;27.99;100.00
47983;BME280;33751;50.816;-1.214;2023-11-19T05:48:08;100803.68;;;27.96;100.00
47983;BME280;33751;50.816;-1.214;2023-11-19T05:50:35;100796.87;;;27.92;100.00
47983;BME280;33751;50.816;-1.214;2023-11-19T05:53:02;100812.28;;;28.15;100.00
47983;BME280;33751;50.816;-1.214;2023-11-19T05:55:28;100809.63;;;28.08;100.00
47983;BME280;33751;50.816;-1.214;2023-11-19T05:57:55;100815.68;;;28.11;100.00
47983;BME280;33751;50.816;-1.214;2023-11-19T06:00:22;100812.12;;;28.07;100.00
47983;BME280;33751;50.816;-1.214;2023-11-19T06:02:48;100817.62;;;28.11;100.00
47983;BME280;33751;50.816;-1.214;2023-11-19T06:05:15;100813.35;;;28.28;100.00
47983;BME280;33751;50.816;-1.214;2023-11-19T06:07:42;100819.65;;;28.27;100.00
47983;BME280;33751;50.816;-1.214;2023-11-19T06:10:09;100816.83;;;28.11;100.00
47983;BME280;33751;50.816;-1.214;2023-11-19T06:12:36;100812.54;;;28.03;100.00
47983;BME280;33751;50.816;-1.214;2023-11-19T06:15:04;100821.33;;;27.98;100.00
47983;BME280;33751;50.816;-1.214;2023-11-19T06:17:31;100829.09;;;28.01;100.00
47983;BME280;33751;50.816;-1.214;2023-11-19T06:19:58;100828.76;;;27.67;100.00
47983;BME280;33751;50.816;-1.214;2023-11-19T06:22:25;100827.49;;;27.97;100.00
47983;BME280;33751;50.816;-1.214;2023-11-19T06:24:51;100825.02;;;27.75;100.00
47983;BME280;33751;50.816;-1.214;2023-11-19T06:27:18;100822.75;;;27.99;100.00
47983;BME280;33751;50.816;-1.214;2023-11-19T06:29:45;100820.30;;;27.80;100.00
47983;BME280;33751;50.816;-1.214;2023-11-19T06:32:12;100824.38;;;28.07;100.00
47983;BME280;33751;50.816;-1.214;2023-11-19T06:34:38;100823.75;;;27.74;100.00
47983;BME280;33751;50.816;-1.214;2023-11-19T06:37:05;100818.97;;;28.06;100.00
47983;BME280;33751;50.816;-1.214;2023-11-19T06:39:32;100807.79;;;28.01;100.00
47983;BME280;33751;50.816;-1.214;2023-11-19T06:41:59;100815.20;;;27.74;100.00
47983;BME280;33751;50.816;-1.214;2023-11-19T06:44:26;100797.84;;;28.08;100.00
47983;BME280;33751;50.816;-1.214;2023-11-19T06:46:52;100794.88;;;28.06;100.00
47983;BME280;33751;50.816;-1.214;2023-11-19T06:49:19;100795.74;;;27.87;100.00
47983;BME280;33751;50.816;-1.214;2023-11-19T06:51:48;100781.35;;;28.14;100.00
47983;BME280;33751;50.816;-1.214;2023-11-19T06:54:15;100787.50;;;28.03;100.00
47983;BME280;33751;50.816;-1.214;2023-11-19T06:56:41;100786.42;;;28.22;100.00
47983;BME280;33751;50.816;-1.214;2023-11-19T06:59:08;100790.48;;;28.30;100.00
47983;BME280;33751;50.816;-1.214;2023-11-19T07:01:36;100791.40;;;28.43;100.00
47983;BME280;33751;50.816;-1.214;2023-11-19T07:04:03;100799.52;;;28.28;100.00
47983;BME280;33751;50.816;-1.214;2023-11-19T07:06:30;100801.93;;;28.34;100.00
47983;BME280;33751;50.816;-1.214;2023-11-19T07:08:57;100798.70;;;28.37;100.00
47983;BME280;33751;50.816;-1.214;2023-11-19T07:11:23;100800.71;;;28.35;100.00
47983;BME280;33751;50.816;-1.214;2023-11-19T07:13:50;100804.16;;;28.46;100.00
47983;BME280;33751;50.816;-1.214;2023-11-19T07:16:16;100819.20;;;28.42;100.00
47983;BME280;33751;50.816;-1.214;2023-11-19T07:18:43;100822.66;;;28.60;100.00
47983;BME280;33751;50.816;-1.214;2023-11-19T07:21:09;100825.95;;;28.60;100.00
47983;BME280;33751;50.816;-1.214;2023-11-19T07:23:36;100826.59;;;28.62;100.00
47983;BME280;33751;50.816;-1.214;2023-11-19T07:26:05;100825.73;;;28.64;100.00
47983;BME280;33751;50.816;-1.214;2023-11-19T07:28:32;100828.61;;;28.61;100.00
47983;BME280;33751;50.816;-1.214;2023-11-19T07:30:59;100829.79;;;28.35;100.00
47983;BME280;33751;50.816;-1.214;2023-11-19T07:33:25;100840.80;;;28.59;100.00
47983;BME280;33751;50.816;-1.214;2023-11-19T07:35:52;100841.38;;;28.61;100.00
47983;BME280;33751;50.816;-1.214;2023-11-19T07:38:18;100852.36;;;28.62;100.00
47983;BME280;33751;50.816;-1.214;2023-11-19T07:40:45;100849.28;;;28.67;100.00
47983;BME280;33751;50.816;-1.214;2023-11-19T07:43:13;100852.48;;;28.93;100.00
47983;BME280;33751;50.816;-1.214;2023-11-19T07:45:40;100863.28;;;28.40;100.00
47983;BME280;33751;50.816;-1.214;2023-11-19T07:48:07;100866.33;;;28.45;100.00
47983;BME280;33751;50.816;-1.214;2023-11-19T07:50:34;100868.36;;;29.00;100.00
47983;BME280;33751;50.816;-1.214;2023-11-19T07:53:00;100865.60;;;28.58;100.00
47983;BME280;33751;50.816;-1.214;2023-11-19T07:55:27;100872.00;;;29.24;100.00
47983;BME280;33751;50.816;-1.214;2023-11-19T07:57:54;100872.16;;;29.09;100.00
47983;BME280;33751;50.816;-1.214;2023-11-19T08:00:21;100869.79;;;28.97;100.00
47983;BME280;33751;50.816;-1.214;2023-11-19T08:02:47;100864.35;;;29.55;100.00
47983;BME280;33751;50.816;-1.214;2023-11-19T08:05:14;100864.14;;;29.09;100.00
47983;BME280;33751;50.816;-1.214;2023-11-19T08:07:41;100859.08;;;29.62;100.00
47983;BME280;33751;50.816;-1.214;2023-11-19T08:10:08;100864.33;;;29.38;100.00
47983;BME280;33751;50.816;-1.214;2023-11-19T08:12:35;100864.82;;;29.24;100.00
47983;BME280;33751;50.816;-1.214;2023-11-19T08:15:09;100858.80;;;29.34;100.00
47983;BME280;33751;50.816;-1.214;2023-11-19T08:17:36;100857.49;;;29.50;100.00
47983;BME280;33751;50.816;-1.214;2023-11-19T08:20:04;100851.29;;;29.36;100.00
47983;BME280;33751;50.816;-1.214;2023-11-19T08:22:31;100847.57;;;29.38;100.00
47983;BME280;33751;50.816;-1.214;2023-11-19T08:24:58;100841.10;;;29.35;100.00
47983;BME280;33751;50.816;-1.214;2023-11-19T08:27:25;100838.16;;;29.42;100.00
47983;BME280;33751;50.816;-1.214;2023-11-19T08:29:53;100839.50;;;29.24;100.00
47983;BME280;33751;50.816;-1.214;2023-11-19T08:32:20;100840.67;;;29.42;100.00
47983;BME280;33751;50.816;-1.214;2023-11-19T08:34:47;100847.00;;;29.37;100.00
47983;BME280;33751;50.816;-1.214;2023-11-19T08:37:14;100849.63;;;29.33;100.00
47983;BME280;33751;50.816;-1.214;2023-11-19T08:39:40;100862.14;;;29.05;100.00
47983;BME280;33751;50.816;-1.214;2023-11-19T08:42:07;100858.26;;;29.39;100.00
47983;BME280;33751;50.816;-1.214;2023-11-19T08:44:34;100860.78;;;28.99;100.00
47983;BME280;33751;50.816;-1.214;2023-11-19T08:47:01;100865.29;;;29.06;100.00
47983;BME280;33751;50.816;-1.214;2023-11-19T08:49:28;100868.34;;;29.42;100.00
47983;BME280;33751;50.816;-1.214;2023-11-19T08:51:55;100872.10;;;29.52;100.00
47983;BME280;33751;50.816;-1.214;2023-11-19T08:54:21;100870.93;;;29.74;100.00
47983;BME280;33751;50.816;-1.214;2023-11-19T08:56:48;100875.98;;;29.50;100.00
47983;BME280;33751;50.816;-1.214;2023-11-19T08:59:14;100878.67;;;29.27;100.00
47983;BME280;33751;50.816;-1.214;2023-11-19T09:01:41;100870.01;;;29.94;100.00
47983;BME280;33751;50.816;-1.214;2023-11-19T09:04:07;100869.29;;;30.06;100.00
47983;BME280;33751;50.816;-1.214;2023-11-19T09:06:35;100870.70;;;29.93;100.00
47983;BME280;33751;50.816;-1.214;2023-11-19T09:09:02;100868.06;;;29.68;100.00
47983;BME280;33751;50.816;-1.214;2023-11-19T09:11:29;100874.69;;;29.49;100.00
47983;BME280;33751;50.816;-1.214;2023-11-19T09:13:56;100873.29;;;29.04;100.00
47983;BME280;33751;50.816;-1.214;2023-11-19T09:16:23;100869.04;;;28.91;100.00
47983;BME280;33751;50.816;-1.214;2023-11-19T09:18:49;100868.39;;;29.01;100.00
47983;BME280;33751;50.816;-1.214;2023-11-19T09:21:16;100862.62;;;29.06;100.00
47983;BME280;33751;50.816;-1.214;2023-11-19T09:23:43;100862.99;;;29.51;100.00
47983;BME280;33751;50.816;-1.214;2023-11-19T09:26:10;100857.62;;;29.63;100.00
47983;BME280;33751;50.816;-1.214;2023-11-19T09:28:36;100855.51;;;29.82;100.00
47983;BME280;33751;50.816;-1.214;2023-11-19T09:31:12;100848.94;;;29.51;100.00
47983;BME280;33751;50.816;-1.214;2023-11-19T09:33:39;100850.77;;;29.15;100.00
47983;BME280;33751;50.816;-1.214;2023-11-19T09:36:07;100840.63;;;29.19;100.00
47983;BME280;33751;50.816;-1.214;2023-11-19T09:38:34;100850.12;;;29.25;100.00
47983;BME280;33751;50.816;-1.214;2023-11-19T09:41:01;100836.83;;;29.28;100.00
47983;BME280;33751;50.816;-1.214;2023-11-19T09:43:28;100841.52;;;29.69;100.00
47983;BME280;33751;50.816;-1.214;2023-11-19T09:45:56;100836.98;;;29.59;100.00
47983;BME280;33751;50.816;-1.214;2023-11-19T09:48:24;100837.50;;;29.41;100.00
47983;BME280;33751;50.816;-1.214;2023-11-19T09:50:52;100826.93;;;29.21;100.00
47983;BME280;33751;50.816;-1.214;2023-11-19T09:53:19;100825.66;;;29.69;100.00
47983;BME280;33751;50.816;-1.214;2023-11-19T09:55:47;100826.30;;;29.42;100.00
47983;BME280;33751;50.816;-1.214;2023-11-19T09:58:14;100819.74;;;29.43;100.00
47983;BME280;33751;50.816;-1.214;2023-11-19T10:00:41;100819.55;;;29.59;100.00
47983;BME280;33751;50.816;-1.214;2023-11-19T10:03:10;100824.83;;;29.61;100.00
47983;BME280;33751;50.816;-1.214;2023-11-19T10:05:37;100825.07;;;30.07;100.00
47983;BME280;33751;50.816;-1.214;2023-11-19T10:08:05;100829.07;;;29.78;100.00
47983;BME280;33751;50.816;-1.214;2023-11-19T10:10:32;100832.56;;;29.76;100.00
47983;BME280;33751;50.816;-1.214;2023-11-19T10:12:58;100837.50;;;29.74;100.00
47983;BME280;33751;50.816;-1.214;2023-11-19T10:15:25;100844.02;;;29.74;100.00
47983;BME280;33751;50.816;-1.214;2023-11-19T10:17:52;100844.21;;;29.83;100.00
47983;BME280;33751;50.816;-1.214;2023-11-19T10:20:19;100842.57;;;29.75;100.00
47983;BME280;33751;50.816;-1.214;2023-11-19T10:22:46;100843.05;;;29.86;100.00
47983;BME280;33751;50.816;-1.214;2023-11-19T10:25:22;100837.54;;;30.11;100.00
47983;BME280;33751;50.816;-1.214;2023-11-19T10:27:50;100831.97;;;29.89;100.00
47983;BME280;33751;50.816;-1.214;2023-11-19T10:30:18;100833.46;;;29.93;100.00
47983;BME280;33751;50.816;-1.214;2023-11-19T10:32:45;100829.11;;;29.88;100.00
47983;BME280;33751;50.816;-1.214;2023-11-19T10:35:12;100823.12;;;29.99;100.00
47983;BME280;33751;50.816;-1.214;2023-11-19T10:37:39;100829.20;;;30.04;100.00
47983;BME280;33751;50.816;-1.214;2023-11-19T10:40:06;100825.65;;;30.08;100.00
47983;BME280;33751;50.816;-1.214;2023-11-19T10:42:32;100818.50;;;30.11;100.00
47983;BME280;33751;50.816;-1.214;2023-11-19T10:44:59;100824.16;;;30.08;100.00
47983;BME280;33751;50.816;-1.214;2023-11-19T10:47:26;100821.40;;;29.18;100.00
47983;BME280;33751;50.816;-1.214;2023-11-19T10:49:52;100819.34;;;29.86;100.00
47983;BME280;33751;50.816;-1.214;2023-11-19T10:52:19;100819.79;;;29.28;100.00
47983;BME280;33751;50.816;-1.214;2023-11-19T10:54:50;100825.12;;;29.43;100.00
47983;BME280;33751;50.816;-1.214;2023-11-19T10:57:20;100819.79;;;29.44;100.00
47983;BME280;33751;50.816;-1.214;2023-11-19T10:59:55;100826.10;;;29.09;100.00
47983;BME280;33751;50.816;-1.214;2023-11-19T11:02:28;100828.97;;;28.97;100.00
47983;BME280;33751;50.816;-1.214;2023-11-19T11:04:56;100817.65;;;28.86;100.00
47983;BME280;33751;50.816;-1.214;2023-11-19T11:07:24;100822.57;;;28.76;100.00
47983;BME280;33751;50.816;-1.214;2023-11-19T11:09:51;100822.07;;;29.13;100.00
47983;BME280;33751;50.816;-1.214;2023-11-19T11:12:22;100830.71;;;28.48;100.00
47983;BME280;33751;50.816;-1.214;2023-11-19T11:14:50;100832.32;;;28.42;100.00
47983;BME280;33751;50.816;-1.214;2023-11-19T11:17:20;100828.66;;;28.41;100.00
47983;BME280;33751;50.816;-1.214;2023-11-19T11:19:50;100832.80;;;28.29;100.00
47983;BME280;33751;50.816;-1.214;2023-11-19T11:22:17;100833.45;;;28.63;100.00
47983;BME280;33751;50.816;-1.214;2023-11-19T11:24:59;100827.09;;;28.16;100.00
47983;BME280;33751;50.816;-1.214;2023-11-19T11:27:43;100826.29;;;28.54;100.00
47983;BME280;33751;50.816;-1.214;2023-11-19T11:30:23;100829.49;;;28.40;100.00
47983;BME280;33751;50.816;-1.214;2023-11-19T11:33:04;100832.80;;;28.30;100.00
47983;BME280;33751;50.816;-1.214;2023-11-19T11:35:43;100827.69;;;28.48;100.00
47983;BME280;33751;50.816;-1.214;2023-11-19T11:38:15;100821.02;;;27.96;100.00
47983;BME280;33751;50.816;-1.214;2023-11-19T11:41:15;100835.46;;;28.15;100.00
47983;BME280;33751;50.816;-1.214;2023-11-19T11:43:46;100832.75;;;28.31;100.00
47983;BME280;33751;50.816;-1.214;2023-11-19T11:47:01;100825.97;;;28.46;100.00
47983;BME280;33751;50.816;-1.214;2023-11-19T11:49:29;100821.96;;;27.85;100.00
47983;BME280;33751;50.816;-1.214;2023-11-19T11:51:58;100824.53;;;28.04;100.00
47983;BME280;33751;50.816;-1.214;2023-11-19T11:54:26;100813.80;;;28.09;100.00
47983;BME280;33751;50.816;-1.214;2023-11-19T11:57:02;100818.06;;;28.12;100.00
47983;BME280;33751;50.816;-1.214;2023-11-19T11:59:36;100819.58;;;28.38;100.00
47983;BME280;33751;50.816;-1.214;2023-11-19T12:02:03;100817.71;;;27.64;100.00
47983;BME280;33751;50.816;-1.214;2023-11-19T12:04:30;100811.30;;;28.69;100.00
47983;BME280;33751;50.816;-1.214;2023-11-19T12:07:05;100810.48;;;28.41;100.00
47983;BME280;33751;50.816;-1.214;2023-11-19T12:09:32;100808.90;;;28.15;100.00
47983;BME280;33751;50.816;-1.214;2023-11-19T12:12:12;100806.78;;;28.13;100.00
47983;BME280;33751;50.816;-1.214;2023-11-19T12:15:13;100798.37;;;28.91;100.00
47983;BME280;33751;50.816;-1.214;2023-11-19T12:17:43;100796.27;;;28.14;100.00
47983;BME280;33751;50.816;-1.214;2023-11-19T12:20:10;100794.10;;;28.65;100.00
47983;BME280;33751;50.816;-1.214;2023-11-19T12:22:38;100782.56;;;28.39;100.00
47983;BME280;33751;50.816;-1.214;2023-11-19T12:25:06;100784.11;;;28.88;100.00
47983;BME280;33751;50.816;-1.214;2023-11-19T12:27:33;100788.28;;;28.87;100.00
47983;BME280;33751;50.816;-1.214;2023-11-19T12:30:00;100782.95;;;28.86;100.00
47983;BME280;33751;50.816;-1.214;2023-11-19T12:32:37;100781.02;;;28.38;100.00